Morrow, Georgia
Current Conditions -  °F | °C
As of 10:52 AM on Thursday 18 Dec 2014 (Local Time) from KATL Reporting Station
Broken Clouds Broken Clouds  
Wind Chill: 42°   Ceiling: 7500
Heat Index: 44°   Visibility: 10mi
Dew Point: 31°   Wind: 5mph
Humidity: 60%   Direction: 320°NW
Pressure: 30.18"   Gusts: NA
Location:  33.58°N, 84.34°W
Report Text: KATL 181552Z 32004KT 10SM BKN075 BKN100 BKN250 07/M01 A3018 RMK AO2 SLP226 T00671006
Loading
Personal Weather Stations






























Interactive Weather Map New forecast layout! Learn more

10-Day Weather Forecast

Advertisements
Track Severe Weather on mobile